sensor_id;sensor_type;location;lat;lon;timestamp;pressure;altitude;pressure_sealevel;temperature;humidity
22047;BME280;11187;49.412;20.956;2024-02-16T00:01:44;95651.69;;;-0.23;100.00
22047;BME280;11187;49.412;20.956;2024-02-16T00:04:18;95647.53;;;-0.23;100.00
22047;BME280;11187;49.412;20.956;2024-02-16T00:07:04;95645.03;;;-0.23;100.00
22047;BME280;11187;49.412;20.956;2024-02-16T00:09:38;95650.75;;;-0.27;100.00
22047;BME280;11187;49.412;20.956;2024-02-16T00:12:24;95650.66;;;-0.30;100.00
22047;BME280;11187;49.412;20.956;2024-02-16T00:14:58;95654.06;;;-0.28;100.00
22047;BME280;11187;49.412;20.956;2024-02-16T00:17:48;95650.72;;;-0.28;100.00
22047;BME280;11187;49.412;20.956;2024-02-16T00:20:22;95644.88;;;-0.27;100.00
22047;BME280;11187;49.412;20.956;2024-02-16T00:23:16;95641.34;;;-0.32;100.00
22047;BME280;11187;49.412;20.956;2024-02-16T00:25:52;95643.69;;;-0.38;100.00
22047;BME280;11187;49.412;20.956;2024-02-16T00:28:45;95648.56;;;-0.43;100.00
22047;BME280;11187;49.412;20.956;2024-02-16T00:31:19;95640.97;;;-0.45;100.00
22047;BME280;11187;49.412;20.956;2024-02-16T00:34:14;95642.50;;;-0.48;100.00
22047;BME280;11187;49.412;20.956;2024-02-16T00:36:48;95637.47;;;-0.50;100.00
22047;BME280;11187;49.412;20.956;2024-02-16T00:39:38;95635.66;;;-0.52;100.00
22047;BME280;11187;49.412;20.956;2024-02-16T00:42:21;95633.13;;;-0.54;100.00
22047;BME280;11187;49.412;20.956;2024-02-16T00:45:04;95638.94;;;-0.55;100.00
22047;BME280;11187;49.412;20.956;2024-02-16T00:47:45;95626.28;;;-0.58;100.00
22047;BME280;11187;49.412;20.956;2024-02-16T00:50:24;95628.78;;;-0.58;100.00
22047;BME280;11187;49.412;20.956;2024-02-16T00:53:06;95626.28;;;-0.58;100.00
22047;BME280;11187;49.412;20.956;2024-02-16T00:58:52;95622.78;;;-0.61;100.00
22047;BME280;11187;49.412;20.956;2024-02-16T01:01:31;95617.75;;;-0.63;100.00
22047;BME280;11187;49.412;20.956;2024-02-16T01:04:18;95620.19;;;-0.65;100.00
22047;BME280;11187;49.412;20.956;2024-02-16T01:07:12;95615.97;;;-0.66;100.00
22047;BME280;11187;49.412;20.956;2024-02-16T01:10:07;95613.47;;;-0.66;100.00
22047;BME280;11187;49.412;20.956;2024-02-16T01:12:40;95608.47;;;-0.64;100.00
22047;BME280;11187;49.412;20.956;2024-02-16T01:15:26;95607.78;;;-0.60;100.00
22047;BME280;11187;49.412;20.956;2024-02-16T01:18:00;95605.41;;;-0.55;100.00
22047;BME280;11187;49.412;20.956;2024-02-16T01:20:46;95601.34;;;-0.52;100.00
22047;BME280;11187;49.412;20.956;2024-02-16T01:23:20;95603.78;;;-0.53;100.00
22047;BME280;11187;49.412;20.956;2024-02-16T01:26:13;95605.41;;;-0.55;100.00
22047;BME280;11187;49.412;20.956;2024-02-16T01:28:47;95610.44;;;-0.55;100.00
22047;BME280;11187;49.412;20.956;2024-02-16T01:31:33;95608.88;;;-0.52;100.00
22047;BME280;11187;49.412;20.956;2024-02-16T01:34:09;95609.78;;;-0.50;100.00
22047;BME280;11187;49.412;20.956;2024-02-16T01:36:56;95609.81;;;-0.48;100.00
22047;BME280;11187;49.412;20.956;2024-02-16T01:39:29;95606.50;;;-0.47;100.00
22047;BME280;11187;49.412;20.956;2024-02-16T01:42:15;95604.84;;;-0.47;100.00
22047;BME280;11187;49.412;20.956;2024-02-16T01:45:03;95601.56;;;-0.44;100.00
22047;BME280;11187;49.412;20.956;2024-02-16T01:47:44;95607.44;;;-0.44;100.00
22047;BME280;11187;49.412;20.956;2024-02-16T01:50:25;95604.03;;;-0.46;100.00
22047;BME280;11187;49.412;20.956;2024-02-16T01:53:10;95598.84;;;-0.50;100.00
22047;BME280;11187;49.412;20.956;2024-02-16T01:55:47;95600.47;;;-0.52;100.00
22047;BME280;11187;49.412;20.956;2024-02-16T01:58:42;95602.09;;;-0.54;100.00
22047;BME280;11187;49.412;20.956;2024-02-16T02:01:35;95596.19;;;-0.55;100.00
22047;BME280;11187;49.412;20.956;2024-02-16T02:04:10;95596.31;;;-0.52;100.00
22047;BME280;11187;49.412;20.956;2024-02-16T02:06:56;95598.91;;;-0.49;100.00
22047;BME280;11187;49.412;20.956;2024-02-16T02:09:30;95602.25;;;-0.50;100.00
22047;BME280;11187;49.412;20.956;2024-02-16T02:12:17;95599.72;;;-0.50;100.00
22047;BME280;11187;49.412;20.956;2024-02-16T02:14:51;95595.53;;;-0.49;100.00
22047;BME280;11187;49.412;20.956;2024-02-16T02:17:39;95593.88;;;-0.49;100.00
22047;BME280;11187;49.412;20.956;2024-02-16T02:20:12;95594.78;;;-0.47;100.00
22047;BME280;11187;49.412;20.956;2024-02-16T02:22:59;95601.56;;;-0.44;100.00
22047;BME280;11187;49.412;20.956;2024-02-16T02:25:32;95599.06;;;-0.44;100.00
22047;BME280;11187;49.412;20.956;2024-02-16T02:28:19;95603.19;;;-0.46;100.00
22047;BME280;11187;49.412;20.956;2024-02-16T02:30:57;95601.44;;;-0.49;100.00
22047;BME280;11187;49.412;20.956;2024-02-16T02:33:50;95601.44;;;-0.49;100.00
22047;BME280;11187;49.412;20.956;2024-02-16T02:36:44;95595.53;;;-0.49;100.00
22047;BME280;11187;49.412;20.956;2024-02-16T02:39:25;95598.13;;;-0.48;100.00
22047;BME280;11187;49.412;20.956;2024-02-16T02:42:05;95599.06;;;-0.44;100.00
22047;BME280;11187;49.412;20.956;2024-02-16T02:44:45;95594.78;;;-0.47;100.00
22047;BME280;11187;49.412;20.956;2024-02-16T02:47:31;95596.44;;;-0.47;100.00
22047;BME280;11187;49.412;20.956;2024-02-16T02:50:06;95589.75;;;-0.47;100.00
22047;BME280;11187;49.412;20.956;2024-02-16T02:52:52;95593.94;;;-0.47;100.00
22047;BME280;11187;49.412;20.956;2024-02-16T02:55:26;95593.03;;;-0.49;100.00
22047;BME280;11187;49.412;20.956;2024-02-16T02:58:12;95591.28;;;-0.52;100.00
22047;BME280;11187;49.412;20.956;2024-02-16T03:00:46;95593.66;;;-0.56;100.00
22047;BME280;11187;49.412;20.956;2024-02-16T03:03:33;95592.75;;;-0.58;100.00
22047;BME280;11187;49.412;20.956;2024-02-16T03:06:17;95593.50;;;-0.61;100.00
22047;BME280;11187;49.412;20.956;2024-02-16T03:09:04;95593.50;;;-0.61;100.00
22047;BME280;11187;49.412;20.956;2024-02-16T03:11:38;95604.47;;;-0.59;100.00
22047;BME280;11187;49.412;20.956;2024-02-16T03:14:26;95600.28;;;-0.58;100.00
22047;BME280;11187;49.412;20.956;2024-02-16T03:16:59;95599.38;;;-0.60;100.00
22047;BME280;11187;49.412;20.956;2024-02-16T03:19:52;95592.75;;;-0.58;100.00
22047;BME280;11187;49.412;20.956;2024-02-16T03:22:26;95600.38;;;-0.55;100.00
22047;BME280;11187;49.412;20.956;2024-02-16T03:25:19;95600.38;;;-0.55;100.00
22047;BME280;11187;49.412;20.956;2024-02-16T03:27:54;95601.22;;;-0.55;100.00
22047;BME280;11187;49.412;20.956;2024-02-16T03:30:41;95601.34;;;-0.52;100.00
22047;BME280;11187;49.412;20.956;2024-02-16T03:33:15;95606.38;;;-0.52;100.00
22047;BME280;11187;49.412;20.956;2024-02-16T03:36:02;95609.66;;;-0.53;100.00
22047;BME280;11187;49.412;20.956;2024-02-16T03:38:36;95603.84;;;-0.52;100.00
22047;BME280;11187;49.412;20.956;2024-02-16T03:41:23;95607.22;;;-0.51;100.00
22047;BME280;11187;49.412;20.956;2024-02-16T03:43:56;95614.81;;;-0.50;100.00
22047;BME280;11187;49.412;20.956;2024-02-16T03:46:43;95611.44;;;-0.50;100.00
22047;BME280;11187;49.412;20.956;2024-02-16T03:49:19;95615.56;;;-0.52;100.00
22047;BME280;11187;49.412;20.956;2024-02-16T03:52:07;95611.25;;;-0.56;100.00
22047;BME280;11187;49.412;20.956;2024-02-16T03:54:41;95617.06;;;-0.57;100.00
22047;BME280;11187;49.412;20.956;2024-02-16T03:57:30;95616.91;;;-0.62;100.00
22047;BME280;11187;49.412;20.956;2024-02-16T04:00:04;95616.91;;;-0.62;100.00
22047;BME280;11187;49.412;20.956;2024-02-16T04:02:52;95618.78;;;-0.56;100.00
22047;BME280;11187;49.412;20.956;2024-02-16T04:05:26;95611.28;;;-0.55;100.00
22047;BME280;11187;49.412;20.956;2024-02-16T04:08:15;95617.22;;;-0.53;100.00
22047;BME280;11187;49.412;20.956;2024-02-16T04:10:48;95618.03;;;-0.54;100.00
22047;BME280;11187;49.412;20.956;2024-02-16T04:13:44;95616.31;;;-0.55;100.00
22047;BME280;11187;49.412;20.956;2024-02-16T04:16:18;95611.34;;;-0.53;100.00
22047;BME280;11187;49.412;20.956;2024-02-16T04:19:05;95614.69;;;-0.54;100.00
22047;BME280;11187;49.412;20.956;2024-02-16T04:21:38;95610.50;;;-0.52;100.00
22047;BME280;11187;49.412;20.956;2024-02-16T04:24:25;95613.94;;;-0.50;100.00
22047;BME280;11187;49.412;20.956;2024-02-16T04:26:58;95612.38;;;-0.47;100.00
22047;BME280;11187;49.412;20.956;2024-02-16T04:29:52;95613.34;;;-0.43;100.00
22047;BME280;11187;49.412;20.956;2024-02-16T04:32:46;95609.88;;;-0.47;100.00
22047;BME280;11187;49.412;20.956;2024-02-16T04:35:40;95618.19;;;-0.49;100.00
22047;BME280;11187;49.412;20.956;2024-02-16T04:38:35;95613.22;;;-0.48;100.00
22047;BME280;11187;49.412;20.956;2024-02-16T04:41:29;95622.38;;;-0.48;100.00
22047;BME280;11187;49.412;20.956;2024-02-16T04:44:02;95624.97;;;-0.47;100.00
22047;BME280;11187;49.412;20.956;2024-02-16T04:46:50;95619.09;;;-0.47;100.00
22047;BME280;11187;49.412;20.956;2024-02-16T04:49:25;95609.72;;;-0.51;100.00
22047;BME280;11187;49.412;20.956;2024-02-16T04:52:19;95616.47;;;-0.50;100.00
22047;BME280;11187;49.412;20.956;2024-02-16T04:54:56;95616.44;;;-0.52;100.00
22047;BME280;11187;49.412;20.956;2024-02-16T04:57:44;95621.34;;;-0.55;100.00
22047;BME280;11187;49.412;20.956;2024-02-16T05:00:17;95619.66;;;-0.56;100.00
22047;BME280;11187;49.412;20.956;2024-02-16T05:03:11;95622.84;;;-0.60;100.00
22047;BME280;11187;49.412;20.956;2024-02-16T05:06:05;95620.34;;;-0.60;100.00
22047;BME280;11187;49.412;20.956;2024-02-16T05:08:59;95611.09;;;-0.61;100.00
22047;BME280;11187;49.412;20.956;2024-02-16T05:11:32;95619.44;;;-0.62;100.00
22047;BME280;11187;49.412;20.956;2024-02-16T05:14:20;95611.03;;;-0.63;100.00
22047;BME280;11187;49.412;20.956;2024-02-16T05:16:53;95612.72;;;-0.63;100.00
22047;BME280;11187;49.412;20.956;2024-02-16T05:19:40;95612.81;;;-0.60;100.00
22047;BME280;11187;49.412;20.956;2024-02-16T05:22:13;95616.06;;;-0.63;100.00
22047;BME280;11187;49.412;20.956;2024-02-16T05:25:09;95615.97;;;-0.66;100.00
22047;BME280;11187;49.412;20.956;2024-02-16T05:27:44;95614.25;;;-0.67;100.00
22047;BME280;11187;49.412;20.956;2024-02-16T05:30:40;95608.28;;;-0.70;100.00
22047;BME280;11187;49.412;20.956;2024-02-16T05:33:21;95616.69;;;-0.70;100.00
22047;BME280;11187;49.412;20.956;2024-02-16T05:36:18;95620.81;;;-0.72;100.00
22047;BME280;11187;49.412;20.956;2024-02-16T05:39:14;95616.63;;;-0.71;100.00
22047;BME280;11187;49.412;20.956;2024-02-16T05:42:13;95620.91;;;-0.69;100.00
22047;BME280;11187;49.412;20.956;2024-02-16T05:44:46;95633.47;;;-0.69;100.00
22047;BME280;11187;49.412;20.956;2024-02-16T05:47:36;95638.41;;;-0.72;100.00
22047;BME280;11187;49.412;20.956;2024-02-16T05:50:14;95643.38;;;-0.73;100.00
22047;BME280;11187;49.412;20.956;2024-02-16T05:53:09;95638.25;;;-0.76;100.00
22047;BME280;11187;49.412;20.956;2024-02-16T05:55:43;95644.22;;;-0.73;100.00
22047;BME280;11187;49.412;20.956;2024-02-16T05:58:30;95645.94;;;-0.72;100.00
22047;BME280;11187;49.412;20.956;2024-02-16T06:01:03;95643.34;;;-0.75;100.00
22047;BME280;11187;49.412;20.956;2024-02-16T06:03:53;95654.25;;;-0.74;100.00
22047;BME280;11187;49.412;20.956;2024-02-16T06:06:47;95660.13;;;-0.74;100.00
22047;BME280;11187;49.412;20.956;2024-02-16T06:09:20;95657.66;;;-0.72;100.00
22047;BME280;11187;49.412;20.956;2024-02-16T06:12:20;95658.53;;;-0.72;100.00
22047;BME280;11187;49.412;20.956;2024-02-16T06:15:14;95657.69;;;-0.71;100.00
22047;BME280;11187;49.412;20.956;2024-02-16T06:17:49;95662.72;;;-0.71;100.00
22047;BME280;11187;49.412;20.956;2024-02-16T06:20:36;95667.81;;;-0.69;100.00
22047;BME280;11187;49.412;20.956;2024-02-16T06:23:09;95668.63;;;-0.70;100.00
22047;BME280;11187;49.412;20.956;2024-02-16T06:26:08;95671.09;;;-0.72;100.00
22047;BME280;11187;49.412;20.956;2024-02-16T06:28:42;95678.63;;;-0.72;100.00
22047;BME280;11187;49.412;20.956;2024-02-16T06:31:29;95675.34;;;-0.69;100.00
22047;BME280;11187;49.412;20.956;2024-02-16T06:34:02;95674.66;;;-0.65;100.00
22047;BME280;11187;49.412;20.956;2024-02-16T06:36:56;95674.91;;;-0.57;100.00
22047;BME280;11187;49.412;20.956;2024-02-16T06:39:50;95676.66;;;-0.55;100.00
22047;BME280;11187;49.412;20.956;2024-02-16T06:42:44;95676.78;;;-0.52;100.00
22047;BME280;11187;49.412;20.956;2024-02-16T06:45:38;95674.38;;;-0.49;100.00
22047;BME280;11187;49.412;20.956;2024-02-16T06:48:11;95672.09;;;-0.41;100.00
22047;BME280;11187;49.412;20.956;2024-02-16T06:51:05;95674.75;;;-0.36;100.00
22047;BME280;11187;49.412;20.956;2024-02-16T06:53:59;95671.75;;;-0.26;100.00
22047;BME280;11187;49.412;20.956;2024-02-16T06:56:54;95675.22;;;-0.23;100.00
22047;BME280;11187;49.412;20.956;2024-02-16T06:59:52;95680.34;;;-0.19;100.00
22047;BME280;11187;49.412;20.956;2024-02-16T07:02:26;95676.28;;;-0.16;100.00
22047;BME280;11187;49.412;20.956;2024-02-16T07:05:20;95675.53;;;-0.12;100.00
22047;BME280;11187;49.412;20.956;2024-02-16T07:08:17;95674.06;;;-0.05;100.00
22047;BME280;11187;49.412;20.956;2024-02-16T07:10:50;95674.34;;;0.03;100.00
22047;BME280;11187;49.412;20.956;2024-02-16T07:13:41;95676.25;;;0.11;100.00
22047;BME280;11187;49.412;20.956;2024-02-16T07:16:17;95670.50;;;0.15;100.00
22047;BME280;11187;49.412;20.956;2024-02-16T07:19:04;95673.22;;;0.22;100.00
22047;BME280;11187;49.412;20.956;2024-02-16T07:21:38;95685.13;;;0.27;100.00
22047;BME280;11187;49.412;20.956;2024-02-16T07:24:25;95681.09;;;0.32;100.00
22047;BME280;11187;49.412;20.956;2024-02-16T07:27:05;95685.44;;;0.36;100.00
22047;BME280;11187;49.412;20.956;2024-02-16T07:29:49;95678.72;;;0.37;100.00
22047;BME280;11187;49.412;20.956;2024-02-16T07:32:29;95678.84;;;0.41;100.00
22047;BME280;11187;49.412;20.956;2024-02-16T07:35:09;95682.41;;;0.48;100.00
22047;BME280;11187;49.412;20.956;2024-02-16T07:37:55;95685.00;;;0.51;100.00
22047;BME280;11187;49.412;20.956;2024-02-16T07:40:35;95685.00;;;0.51;100.00
22047;BME280;11187;49.412;20.956;2024-02-16T07:43:15;95689.28;;;0.54;100.00
22047;BME280;11187;49.412;20.956;2024-02-16T07:45:57;95686.91;;;0.58;100.00
22047;BME280;11187;49.412;20.956;2024-02-16T07:48:37;95684.50;;;0.63;100.00
22047;BME280;11187;49.412;20.956;2024-02-16T07:51:17;95691.44;;;0.70;100.00
22047;BME280;11187;49.412;20.956;2024-02-16T07:54:00;95682.44;;;0.78;100.00
22047;BME280;11187;49.412;20.956;2024-02-16T07:56:47;95685.16;;;0.86;100.00
22047;BME280;11187;49.412;20.956;2024-02-16T07:59:27;95680.25;;;0.91;100.00
22047;BME280;11187;49.412;20.956;2024-02-16T08:02:07;95678.75;;;0.97;100.00
22047;BME280;11187;49.412;20.956;2024-02-16T08:04:59;95678.97;;;1.05;100.00
22047;BME280;11187;49.412;20.956;2024-02-16T08:07:55;95683.41;;;1.14;100.00
22047;BME280;11187;49.412;20.956;2024-02-16T08:10:31;95682.75;;;1.21;100.00
22047;BME280;11187;49.412;20.956;2024-02-16T08:13:18;95678.72;;;1.28;100.00
22047;BME280;11187;49.412;20.956;2024-02-16T08:15:52;95678.88;;;1.34;100.00
22047;BME280;11187;49.412;20.956;2024-02-16T08:18:46;95680.72;;;1.39;100.00
22047;BME280;11187;49.412;20.956;2024-02-16T08:21:40;95680.06;;;1.46;100.00
22047;BME280;11187;49.412;20.956;2024-02-16T08:24:13;95678.63;;;1.56;100.00
22047;BME280;11187;49.412;20.956;2024-02-16T08:27:07;95680.59;;;1.68;100.00
22047;BME280;11187;49.412;20.956;2024-02-16T08:29:43;95676.53;;;1.75;100.00
22047;BME280;11187;49.412;20.956;2024-02-16T08:32:32;95681.00;;;1.85;100.00
22047;BME280;11187;49.412;20.956;2024-02-16T08:35:06;95678.75;;;1.96;100.00
22047;BME280;11187;49.412;20.956;2024-02-16T08:38:01;95673.03;;;2.03;100.00
22047;BME280;11187;49.412;20.956;2024-02-16T08:40:34;95680.81;;;2.12;100.00
22047;BME280;11187;49.412;20.956;2024-02-16T08:43:28;95679.34;;;2.20;100.00
22047;BME280;11187;49.412;20.956;2024-02-16T08:46:01;95678.66;;;2.29;100.00
22047;BME280;11187;49.412;20.956;2024-02-16T08:48:55;95678.84;;;2.37;100.00
22047;BME280;11187;49.412;20.956;2024-02-16T08:51:50;95679.84;;;2.45;100.00
22047;BME280;11187;49.412;20.956;2024-02-16T08:54:30;95675.78;;;2.51;100.00
22047;BME280;11187;49.412;20.956;2024-02-16T08:57:17;95675.09;;;2.59;100.00
22047;BME280;11187;49.412;20.956;2024-02-16T08:59:57;95671.06;;;2.67;100.00
22047;BME280;11187;49.412;20.956;2024-02-16T09:02:37;95672.88;;;2.74;100.00
22047;BME280;11187;49.412;20.956;2024-02-16T09:05:24;95672.19;;;2.80;100.00
22047;BME280;11187;49.412;20.956;2024-02-16T09:08:18;95670.69;;;2.89;100.00
22047;BME280;11187;49.412;20.956;2024-02-16T09:11:13;95667.44;;;2.97;100.00
22047;BME280;11187;49.412;20.956;2024-02-16T09:14:07;95667.66;;;3.07;100.00
22047;BME280;11187;49.412;20.956;2024-02-16T09:17:01;95665.31;;;3.17;100.00
22047;BME280;11187;49.412;20.956;2024-02-16T09:19:34;95656.13;;;3.22;100.00
22047;BME280;11187;49.412;20.956;2024-02-16T09:22:21;95664.75;;;3.33;100.00
22047;BME280;11187;49.412;20.956;2024-02-16T09:24:57;95661.81;;;3.57;100.00
22047;BME280;11187;49.412;20.956;2024-02-16T09:27:44;95664.84;;;3.86;100.00
22047;BME280;11187;49.412;20.956;2024-02-16T09:30:17;95657.63;;;4.09;100.00
22047;BME280;11187;49.412;20.956;2024-02-16T09:33:04;95657.94;;;4.32;100.00
22047;BME280;11187;49.412;20.956;2024-02-16T09:35:37;95664.16;;;4.53;100.00
22047;BME280;11187;49.412;20.956;2024-02-16T09:38:27;95656.81;;;4.73;100.00
22047;BME280;11187;49.412;20.956;2024-02-16T09:41:00;95650.28;;;4.92;100.00
22047;BME280;11187;49.412;20.956;2024-02-16T09:43:47;95654.75;;;5.11;100.00
22047;BME280;11187;49.412;20.956;2024-02-16T09:46:21;95654.03;;;5.26;100.00
22047;BME280;11187;49.412;20.956;2024-02-16T09:49:10;95656.69;;;5.37;100.00
22047;BME280;11187;49.412;20.956;2024-02-16T09:51:53;95650.81;;;5.39;100.00
22047;BME280;11187;49.412;20.956;2024-02-16T09:54:45;95654.13;;;5.35;100.00
22047;BME280;11187;49.412;20.956;2024-02-16T09:57:18;95653.28;;;5.32;100.00
22047;BME280;11187;49.412;20.956;2024-02-16T10:00:13;95649.88;;;5.33;100.00
22047;BME280;11187;49.412;20.956;2024-02-16T10:03:07;95652.50;;;5.42;100.00
22047;BME280;11187;49.412;20.956;2024-02-16T10:05:43;95645.84;;;5.50;100.00
22047;BME280;11187;49.412;20.956;2024-02-16T10:08:30;95645.09;;;5.62;100.00
22047;BME280;11187;49.412;20.956;2024-02-16T10:11:05;95646.00;;;5.69;100.00
22047;BME280;11187;49.412;20.956;2024-02-16T10:14:02;95641.84;;;5.75;100.00
22047;BME280;11187;49.412;20.956;2024-02-16T10:16:35;95641.88;;;5.80;100.00
22047;BME280;11187;49.412;20.956;2024-02-16T10:19:29;95634.31;;;5.86;100.00
22047;BME280;11187;49.412;20.956;2024-02-16T10:22:12;95634.31;;;5.89;100.00
22047;BME280;11187;49.412;20.956;2024-02-16T10:25:07;95630.97;;;5.93;100.00
22047;BME280;11187;49.412;20.956;2024-02-16T10:27:54;95631.88;;;5.95;100.00
22047;BME280;11187;49.412;20.956;2024-02-16T10:30:38;95628.50;;;5.98;100.00
22047;BME280;11187;49.412;20.956;2024-02-16T10:33:19;95614.13;;;6.00;100.00
22047;BME280;11187;49.412;20.956;2024-02-16T10:36:07;95613.31;;;6.07;100.00
22047;BME280;11187;49.412;20.956;2024-02-16T10:38:42;95613.41;;;6.18;100.00
22047;BME280;11187;49.412;20.956;2024-02-16T10:41:33;95615.09;;;6.23;100.00
22047;BME280;11187;49.412;20.956;2024-02-16T10:44:07;95612.56;;;6.26;100.00
22047;BME280;11187;49.412;20.956;2024-02-16T10:46:58;95608.41;;;6.32;100.00
22047;BME280;11187;49.412;20.956;2024-02-16T10:49:34;95612.63;;;6.34;100.00
22047;BME280;11187;49.412;20.956;2024-02-16T10:52:21;95610.13;;;6.40;100.00
22047;BME280;11187;49.412;20.956;2024-02-16T10:54:56;95600.81;;;6.42;100.00
22047;BME280;11187;49.412;20.956;2024-02-16T10:57:44;95602.53;;;6.46;100.00
22047;BME280;11187;49.412;20.956;2024-02-16T11:00:19;95603.41;;;6.53;100.00
22047;BME280;11187;49.412;20.956;2024-02-16T11:03:06;95597.50;;;6.60;100.00
22047;BME280;11187;49.412;20.956;2024-02-16T11:05:55;95600.09;;;6.66;100.00
22047;BME280;11187;49.412;20.956;2024-02-16T11:08:49;95589.09;;;6.71;100.00
22047;BME280;11187;49.412;20.956;2024-02-16T11:11:23;95580.59;;;6.73;100.00
22047;BME280;11187;49.412;20.956;2024-02-16T11:14:17;95577.22;;;6.76;100.00
22047;BME280;11187;49.412;20.956;2024-02-16T11:17:12;95571.31;;;6.81;100.00
22047;BME280;11187;49.412;20.956;2024-02-16T11:19:47;95568.78;;;6.86;100.00
22047;BME280;11187;49.412;20.956;2024-02-16T11:22:37;95563.72;;;6.90;100.00
22047;BME280;11187;49.412;20.956;2024-02-16T11:25:11;95562.84;;;6.90;100.00
22047;BME280;11187;49.412;20.956;2024-02-16T11:27:58;95558.63;;;6.97;100.00
22047;BME280;11187;49.412;20.956;2024-02-16T11:30:39;95557.78;;;7.04;100.00
22047;BME280;11187;49.412;20.956;2024-02-16T11:33:19;95553.56;;;7.07;100.00
22047;BME280;11187;49.412;20.956;2024-02-16T11:36:00;95555.28;;;7.11;100.00
22047;BME280;11187;49.412;20.956;2024-02-16T11:38:43;95554.41;;;7.17;100.00
22047;BME280;11187;49.412;20.956;2024-02-16T11:41:23;95552.75;;;7.22;100.00
22047;BME280;11187;49.412;20.956;2024-02-16T11:44:03;95545.13;;;7.27;100.00
22047;BME280;11187;49.412;20.956;2024-02-16T11:46:43;95539.16;;;7.31;100.00
22047;BME280;11187;49.412;20.956;2024-02-16T11:49:23;95536.63;;;7.36;100.00
22047;BME280;11187;49.412;20.956;2024-02-16T11:52:07;95534.06;;;7.40;100.00
22047;BME280;11187;49.412;20.956;2024-02-16T11:54:47;95533.25;;;7.41;100.00
22047;BME280;11187;49.412;20.956;2024-02-16T11:57:29;95537.50;;;7.45;99.72
22047;BME280;11187;49.412;20.956;2024-02-16T12:00:10;95532.38;;;7.51;99.84
22047;BME280;11187;49.412;20.956;2024-02-16T12:03:03;95525.59;;;7.55;99.37
22047;BME280;11187;49.412;20.956;2024-02-16T12:05:54;95525.59;;;7.61;98.96
22047;BME280;11187;49.412;20.956;2024-02-16T12:08:36;95528.97;;;7.69;98.68
22047;BME280;11187;49.412;20.956;2024-02-16T12:11:30;95522.19;;;7.74;97.43
22047;BME280;11187;49.412;20.956;2024-02-16T12:14:24;95523.88;;;7.76;97.67
22047;BME280;11187;49.412;20.956;2024-02-16T12:17:18;95524.72;;;7.76;97.17
22047;BME280;11187;49.412;20.956;2024-02-16T12:20:12;95518.78;;;7.82;97.26
22047;BME280;11187;49.412;20.956;2024-02-16T12:23:12;95517.94;;;7.89;96.82
22047;BME280;11187;49.412;20.956;2024-02-16T12:26:06;95523.00;;;7.87;96.64
22047;BME280;11187;49.412;20.956;2024-02-16T12:28:47;95517.94;;;7.89;96.58
22047;BME280;11187;49.412;20.956;2024-02-16T12:31:34;95512.84;;;7.90;96.40
22047;BME280;11187;49.412;20.956;2024-02-16T12:34:17;95513.66;;;7.92;96.88
22047;BME280;11187;49.412;20.956;2024-02-16T12:36:59;95513.69;;;7.91;95.93
22047;BME280;11187;49.412;20.956;2024-02-16T12:39:39;95515.38;;;7.92;95.98
22047;BME280;11187;49.412;20.956;2024-02-16T12:42:27;95515.38;;;7.95;96.14
22047;BME280;11187;49.412;20.956;2024-02-16T12:45:00;95515.34;;;7.97;95.60
22047;BME280;11187;49.412;20.956;2024-02-16T12:47:47;95511.13;;;7.97;95.64
22047;BME280;11187;49.412;20.956;2024-02-16T12:50:20;95516.22;;;7.95;95.33
22047;BME280;11187;49.412;20.956;2024-02-16T12:53:07;95520.47;;;7.92;95.45
22047;BME280;11187;49.412;20.956;2024-02-16T12:55:48;95508.56;;;7.91;95.97
22047;BME280;11187;49.412;20.956;2024-02-16T12:58:38;95511.97;;;7.90;95.65
22047;BME280;11187;49.412;20.956;2024-02-16T13:01:12;95517.06;;;7.90;96.49
22047;BME280;11187;49.412;20.956;2024-02-16T13:03:59;95504.34;;;7.88;96.27
22047;BME280;11187;49.412;20.956;2024-02-16T13:06:32;95500.91;;;7.88;96.12
22047;BME280;11187;49.412;20.956;2024-02-16T13:09:19;95502.63;;;7.87;96.16
22047;BME280;11187;49.412;20.956;2024-02-16T13:11:59;95501.78;;;7.87;95.79
22047;BME280;11187;49.412;20.956;2024-02-16T13:14:49;95508.56;;;7.88;95.81
22047;BME280;11187;49.412;20.956;2024-02-16T13:17:31;95512.81;;;7.89;96.08
22047;BME280;11187;49.412;20.956;2024-02-16T13:20:11;95519.63;;;7.87;95.93
22047;BME280;11187;49.412;20.956;2024-02-16T13:22:51;95504.31;;;7.85;96.08
22047;BME280;11187;49.412;20.956;2024-02-16T13:25:40;95507.72;;;7.87;95.69
22047;BME280;11187;49.412;20.956;2024-02-16T13:28:20;95511.13;;;7.86;95.78
22047;BME280;11187;49.412;20.956;2024-02-16T13:31:07;95511.97;;;7.85;95.74
22047;BME280;11187;49.412;20.956;2024-02-16T13:33:51;95511.16;;;7.82;96.01
22047;BME280;11187;49.412;20.956;2024-02-16T13:36:38;95510.28;;;7.83;95.71
22047;BME280;11187;49.412;20.956;2024-02-16T13:39:19;95502.63;;;7.84;95.84
22047;BME280;11187;49.412;20.956;2024-02-16T13:42:07;95495.84;;;7.82;95.89
22047;BME280;11187;49.412;20.956;2024-02-16T13:44:47;95496.69;;;7.81;96.20
22047;BME280;11187;49.412;20.956;2024-02-16T13:47:27;95496.72;;;7.79;96.28
22047;BME280;11187;49.412;20.956;2024-02-16T13:50:07;95507.72;;;7.77;96.82
22047;BME280;11187;49.412;20.956;2024-02-16T13:52:47;95491.59;;;7.73;96.66
22047;BME280;11187;49.412;20.956;2024-02-16T13:55:27;95506.06;;;7.71;97.27
22047;BME280;11187;49.412;20.956;2024-02-16T13:58:14;95496.72;;;7.67;97.43
22047;BME280;11187;49.412;20.956;2024-02-16T14:00:54;95509.47;;;7.64;97.64
22047;BME280;11187;49.412;20.956;2024-02-16T14:03:41;95497.56;;;7.58;97.63
22047;BME280;11187;49.412;20.956;2024-02-16T14:06:28;95496.72;;;7.55;97.46
22047;BME280;11187;49.412;20.956;2024-02-16T14:09:22;95503.53;;;7.54;97.75
22047;BME280;11187;49.412;20.956;2024-02-16T14:12:00;95506.06;;;7.52;97.86
22047;BME280;11187;49.412;20.956;2024-02-16T14:14:47;95505.22;;;7.50;97.76
22047;BME280;11187;49.412;20.956;2024-02-16T14:17:21;95505.22;;;7.55;97.98